Startpagina
METAR-TAF:

METAR-TAF

Vliegvelden :

Belgrado, Servië

Luchthaven Belgrado Nikola Tesla

breedte: 44-49N, lengte: 020-17E, hoogte: 96 m

Actueel weer

Dit bericht is 14 minuten geleden gemaakt, om 21:00 UTC
Wind 9 kt uit het zuiden
Temperatuur 9°C
Vochtigheid 61%
Druk 1004 hPa
Zicht 10 km of meer
geen wolken onder 1500 m en geen cumulonimbus

METAR: LYBE 162100Z 18009KT CAVOK 09/02 Q1004 R12/1///95 NOSIG

Tijdstip: 22:14 (21:14 UTC)

Verwachting

Dit bericht is 4 uur en het 14 minuten geleden gemaakt, om 17:00 UTC
Verwachting geldig van 16 om 18 UTC tot 17 om 18 UTC
Wind 9 kt uit het zuidzuidoosten
Zicht 10 km of meer
Verspreide wolken op 4000 ft
Tijdelijke
van 17 om 04 UTC tot 17 om 10 UTC
Zicht: 5000 m
regen
Wijzigt naar
van 17 om 09 UTC tot 17 om 11 UTC
Wind 14 kt uit het noordnoordwesten
Zicht: 5000 m
Gebroken wolken op 800 ft
Gebroken wolken op 3000 ft
regen

TAF: LYBE 161700Z 1618/1718 15009KT 9999 SCT040 TX08/1709Z TN02/1718Z TEMPO 1704/1710 5000 RA BECMG 1709/1711 33014KT 5000 RA BKN008 BKN030

Waarnemingen en weersverwachtingen van meer dan 4000 vliegvelden (METAR en TAF).

De beschikbare stations zijn de gele en rode punten op de kaart.

Ga met uw muis naar het station om de naam te zien.

Klik dan om waarnemingen en weersverwachtingen te zien.

kaart wijzigen: klik op de groene knoppen met een zwart kruis om in te zoomen, op de groene knop met een streepje om uit te zoomen of op de groene pijlen voor aangrenzende kaarten.


METAR-TAF: